sensor_id;sensor_type;location;lat;lon;timestamp;temperature;humidity
39345;DHT22;25061;51.954;6.996;2022-12-18T00:01:34;-7.20;99.90
39345;DHT22;25061;51.954;6.996;2022-12-18T00:04:03;-7.30;99.90
39345;DHT22;25061;51.954;6.996;2022-12-18T00:06:30;-7.30;99.90
39345;DHT22;25061;51.954;6.996;2022-12-18T00:08:57;-7.30;99.90
39345;DHT22;25061;51.954;6.996;2022-12-18T00:11:24;-7.20;99.90
39345;DHT22;25061;51.954;6.996;2022-12-18T00:13:51;-7.40;99.90
39345;DHT22;25061;51.954;6.996;2022-12-18T00:16:19;-7.30;99.90
39345;DHT22;25061;51.954;6.996;2022-12-18T00:18:46;-7.30;99.90
39345;DHT22;25061;51.954;6.996;2022-12-18T00:21:12;-7.40;99.90
39345;DHT22;25061;51.954;6.996;2022-12-18T00:23:40;-7.30;99.90
39345;DHT22;25061;51.954;6.996;2022-12-18T00:26:12;-7.50;99.90
39345;DHT22;25061;51.954;6.996;2022-12-18T00:28:37;-7.50;99.90
39345;DHT22;25061;51.954;6.996;2022-12-18T00:31:05;-7.40;99.90
39345;DHT22;25061;51.954;6.996;2022-12-18T00:33:32;-7.50;99.90
39345;DHT22;25061;51.954;6.996;2022-12-18T00:36:02;-7.50;99.90
39345;DHT22;25061;51.954;6.996;2022-12-18T00:38:27;-7.50;99.90
39345;DHT22;25061;51.954;6.996;2022-12-18T00:40:53;-7.50;99.90
39345;DHT22;25061;51.954;6.996;2022-12-18T00:43:18;-7.60;99.90
39345;DHT22;25061;51.954;6.996;2022-12-18T00:45:44;-7.50;99.90
39345;DHT22;25061;51.954;6.996;2022-12-18T00:48:10;-7.50;99.90
39345;DHT22;25061;51.954;6.996;2022-12-18T00:50:36;-7.70;99.90
39345;DHT22;25061;51.954;6.996;2022-12-18T00:53:01;-7.70;99.90
39345;DHT22;25061;51.954;6.996;2022-12-18T00:55:27;-7.60;99.90
39345;DHT22;25061;51.954;6.996;2022-12-18T00:57:52;-7.70;99.90
39345;DHT22;25061;51.954;6.996;2022-12-18T01:00:18;-7.80;99.90
39345;DHT22;25061;51.954;6.996;2022-12-18T01:02:44;-7.80;99.90
39345;DHT22;25061;51.954;6.996;2022-12-18T01:05:11;-7.80;99.90
39345;DHT22;25061;51.954;6.996;2022-12-18T01:07:37;-7.80;99.90
39345;DHT22;25061;51.954;6.996;2022-12-18T01:10:04;-7.90;99.90
39345;DHT22;25061;51.954;6.996;2022-12-18T01:12:30;-7.80;99.90
39345;DHT22;25061;51.954;6.996;2022-12-18T01:14:56;-7.80;99.90
39345;DHT22;25061;51.954;6.996;2022-12-18T01:17:23;-7.90;99.90
39345;DHT22;25061;51.954;6.996;2022-12-18T01:19:49;-7.90;99.90
39345;DHT22;25061;51.954;6.996;2022-12-18T01:22:14;-7.90;99.90
39345;DHT22;25061;51.954;6.996;2022-12-18T01:24:40;-7.90;99.90
39345;DHT22;25061;51.954;6.996;2022-12-18T01:27:05;-8.00;99.90
39345;DHT22;25061;51.954;6.996;2022-12-18T01:29:31;-8.10;99.90
39345;DHT22;25061;51.954;6.996;2022-12-18T01:31:57;-8.10;99.90
39345;DHT22;25061;51.954;6.996;2022-12-18T01:34:23;-8.10;99.90
39345;DHT22;25061;51.954;6.996;2022-12-18T01:36:49;-7.90;99.90
39345;DHT22;25061;51.954;6.996;2022-12-18T01:39:17;-8.00;99.90
39345;DHT22;25061;51.954;6.996;2022-12-18T01:41:43;-7.80;99.90
39345;DHT22;25061;51.954;6.996;2022-12-18T01:45:00;-7.90;99.90
39345;DHT22;25061;51.954;6.996;2022-12-18T01:47:28;-8.00;99.90
39345;DHT22;25061;51.954;6.996;2022-12-18T01:49:57;-8.00;99.90
39345;DHT22;25061;51.954;6.996;2022-12-18T01:52:26;-7.90;99.90
39345;DHT22;25061;51.954;6.996;2022-12-18T01:54:53;-8.00;99.90
39345;DHT22;25061;51.954;6.996;2022-12-18T01:57:19;-8.00;99.90
39345;DHT22;25061;51.954;6.996;2022-12-18T01:59:47;-8.00;99.90
39345;DHT22;25061;51.954;6.996;2022-12-18T02:02:16;-8.10;99.90
39345;DHT22;25061;51.954;6.996;2022-12-18T02:04:41;-8.10;99.90
39345;DHT22;25061;51.954;6.996;2022-12-18T02:15:34;-8.20;99.90
39345;DHT22;25061;51.954;6.996;2022-12-18T02:18:23;-8.10;99.90
39345;DHT22;25061;51.954;6.996;2022-12-18T02:26:46;-8.00;99.90
39345;DHT22;25061;51.954;6.996;2022-12-18T02:29:37;-8.00;99.90
39345;DHT22;25061;51.954;6.996;2022-12-18T02:32:08;-8.00;99.90
39345;DHT22;25061;51.954;6.996;2022-12-18T02:34:38;-8.00;99.90
39345;DHT22;25061;51.954;6.996;2022-12-18T02:37:06;-8.00;99.90
39345;DHT22;25061;51.954;6.996;2022-12-18T02:39:35;-7.80;99.90
39345;DHT22;25061;51.954;6.996;2022-12-18T02:42:02;-7.80;99.90
39345;DHT22;25061;51.954;6.996;2022-12-18T02:44:33;-8.00;99.90
39345;DHT22;25061;51.954;6.996;2022-12-18T02:46:59;-8.00;99.90
39345;DHT22;25061;51.954;6.996;2022-12-18T02:52:13;-8.00;99.90
39345;DHT22;25061;51.954;6.996;2022-12-18T02:57:37;-8.00;99.90
39345;DHT22;25061;51.954;6.996;2022-12-18T03:00:27;-8.00;99.90
39345;DHT22;25061;51.954;6.996;2022-12-18T03:02:56;-7.90;99.90
39345;DHT22;25061;51.954;6.996;2022-12-18T03:05:31;-7.90;99.90
39345;DHT22;25061;51.954;6.996;2022-12-18T03:08:07;-8.00;99.90
39345;DHT22;25061;51.954;6.996;2022-12-18T03:10:37;-8.00;99.90
39345;DHT22;25061;51.954;6.996;2022-12-18T03:13:15;-8.00;99.90
39345;DHT22;25061;51.954;6.996;2022-12-18T03:15:47;-8.00;99.90
39345;DHT22;25061;51.954;6.996;2022-12-18T03:18:20;-8.00;99.90
39345;DHT22;25061;51.954;6.996;2022-12-18T03:20:47;-7.90;99.90
39345;DHT22;25061;51.954;6.996;2022-12-18T03:23:18;-7.90;99.90
39345;DHT22;25061;51.954;6.996;2022-12-18T03:25:46;-8.00;99.90
39345;DHT22;25061;51.954;6.996;2022-12-18T03:28:16;-8.00;99.90
39345;DHT22;25061;51.954;6.996;2022-12-18T03:30:46;-8.10;99.90
39345;DHT22;25061;51.954;6.996;2022-12-18T03:35:50;-8.20;99.90
39345;DHT22;25061;51.954;6.996;2022-12-18T03:38:16;-8.10;99.90
39345;DHT22;25061;51.954;6.996;2022-12-18T03:43:46;-8.00;99.90
39345;DHT22;25061;51.954;6.996;2022-12-18T03:46:33;-8.00;99.90
39345;DHT22;25061;51.954;6.996;2022-12-18T03:49:14;-8.10;99.90
39345;DHT22;25061;51.954;6.996;2022-12-18T03:51:43;-8.10;99.90
39345;DHT22;25061;51.954;6.996;2022-12-18T03:54:10;-8.20;99.90
39345;DHT22;25061;51.954;6.996;2022-12-18T03:56:44;-8.10;99.90
39345;DHT22;25061;51.954;6.996;2022-12-18T03:59:11;-8.10;99.90
39345;DHT22;25061;51.954;6.996;2022-12-18T04:01:41;-8.10;99.90
39345;DHT22;25061;51.954;6.996;2022-12-18T04:04:08;-8.30;99.90
39345;DHT22;25061;51.954;6.996;2022-12-18T04:06:36;-8.30;99.90
39345;DHT22;25061;51.954;6.996;2022-12-18T04:09:03;-8.40;99.90
39345;DHT22;25061;51.954;6.996;2022-12-18T04:11:29;-8.40;99.90
39345;DHT22;25061;51.954;6.996;2022-12-18T04:13:58;-8.40;99.90
39345;DHT22;25061;51.954;6.996;2022-12-18T04:16:25;-8.30;99.90
39345;DHT22;25061;51.954;6.996;2022-12-18T04:18:51;-8.30;99.90
39345;DHT22;25061;51.954;6.996;2022-12-18T04:21:17;-8.30;99.90
39345;DHT22;25061;51.954;6.996;2022-12-18T04:23:42;-8.30;99.90
39345;DHT22;25061;51.954;6.996;2022-12-18T04:26:08;-8.30;99.90
39345;DHT22;25061;51.954;6.996;2022-12-18T04:28:33;-8.30;99.90
39345;DHT22;25061;51.954;6.996;2022-12-18T04:30:59;-8.30;99.90
39345;DHT22;25061;51.954;6.996;2022-12-18T04:33:24;-8.30;99.90
39345;DHT22;25061;51.954;6.996;2022-12-18T04:35:50;-8.30;99.90
39345;DHT22;25061;51.954;6.996;2022-12-18T04:38:15;-8.40;99.90
39345;DHT22;25061;51.954;6.996;2022-12-18T04:40:41;-8.40;99.90
39345;DHT22;25061;51.954;6.996;2022-12-18T04:43:07;-8.30;99.90
39345;DHT22;25061;51.954;6.996;2022-12-18T04:45:32;-8.20;99.90
39345;DHT22;25061;51.954;6.996;2022-12-18T04:47:59;-8.10;99.90
39345;DHT22;25061;51.954;6.996;2022-12-18T04:50:25;-8.00;99.90
39345;DHT22;25061;51.954;6.996;2022-12-18T04:52:50;-7.80;99.90
39345;DHT22;25061;51.954;6.996;2022-12-18T04:55:16;-7.80;99.90
39345;DHT22;25061;51.954;6.996;2022-12-18T04:57:41;-7.80;99.90
39345;DHT22;25061;51.954;6.996;2022-12-18T05:00:08;-7.70;99.90
39345;DHT22;25061;51.954;6.996;2022-12-18T05:02:33;-7.70;99.90
39345;DHT22;25061;51.954;6.996;2022-12-18T05:04:59;-7.60;99.90
39345;DHT22;25061;51.954;6.996;2022-12-18T05:07:25;-7.70;99.90
39345;DHT22;25061;51.954;6.996;2022-12-18T05:09:50;-7.70;99.90
39345;DHT22;25061;51.954;6.996;2022-12-18T05:12:16;-7.70;99.90
39345;DHT22;25061;51.954;6.996;2022-12-18T05:14:41;-7.70;99.90
39345;DHT22;25061;51.954;6.996;2022-12-18T05:17:07;-7.60;99.90
39345;DHT22;25061;51.954;6.996;2022-12-18T05:19:32;-7.60;99.90
39345;DHT22;25061;51.954;6.996;2022-12-18T05:21:58;-7.70;99.90
39345;DHT22;25061;51.954;6.996;2022-12-18T05:24:23;-7.60;99.90
39345;DHT22;25061;51.954;6.996;2022-12-18T05:26:49;-7.50;99.90
39345;DHT22;25061;51.954;6.996;2022-12-18T05:29:15;-7.50;99.90
39345;DHT22;25061;51.954;6.996;2022-12-18T05:31:40;-7.50;99.90
39345;DHT22;25061;51.954;6.996;2022-12-18T05:34:06;-7.40;99.90
39345;DHT22;25061;51.954;6.996;2022-12-18T05:36:31;-7.40;99.90
39345;DHT22;25061;51.954;6.996;2022-12-18T05:38:57;-7.40;99.90
39345;DHT22;25061;51.954;6.996;2022-12-18T05:41:22;-7.40;99.90
39345;DHT22;25061;51.954;6.996;2022-12-18T05:43:48;-7.50;99.90
39345;DHT22;25061;51.954;6.996;2022-12-18T05:46:15;-7.50;99.90
39345;DHT22;25061;51.954;6.996;2022-12-18T05:48:43;-7.40;99.90
39345;DHT22;25061;51.954;6.996;2022-12-18T05:51:14;-7.40;99.90
39345;DHT22;25061;51.954;6.996;2022-12-18T05:53:44;-7.40;99.90
39345;DHT22;25061;51.954;6.996;2022-12-18T05:56:15;-7.40;99.90
39345;DHT22;25061;51.954;6.996;2022-12-18T05:58:42;-7.30;99.90
39345;DHT22;25061;51.954;6.996;2022-12-18T06:01:15;-7.30;99.90
39345;DHT22;25061;51.954;6.996;2022-12-18T06:03:42;-7.30;99.90
39345;DHT22;25061;51.954;6.996;2022-12-18T06:06:19;-7.40;99.90
39345;DHT22;25061;51.954;6.996;2022-12-18T06:08:45;-7.40;99.90
39345;DHT22;25061;51.954;6.996;2022-12-18T06:11:11;-7.60;99.90
39345;DHT22;25061;51.954;6.996;2022-12-18T06:13:37;-7.60;99.90
39345;DHT22;25061;51.954;6.996;2022-12-18T06:16:04;-7.50;99.90
39345;DHT22;25061;51.954;6.996;2022-12-18T06:18:30;-7.50;99.90
39345;DHT22;25061;51.954;6.996;2022-12-18T06:20:56;-7.50;99.90
39345;DHT22;25061;51.954;6.996;2022-12-18T06:23:22;-7.50;99.90
39345;DHT22;25061;51.954;6.996;2022-12-18T06:25:48;-7.50;99.90
39345;DHT22;25061;51.954;6.996;2022-12-18T06:28:13;-7.50;99.90
39345;DHT22;25061;51.954;6.996;2022-12-18T06:30:39;-7.60;99.90
39345;DHT22;25061;51.954;6.996;2022-12-18T06:33:04;-7.80;99.90
39345;DHT22;25061;51.954;6.996;2022-12-18T06:35:31;-7.90;99.90
39345;DHT22;25061;51.954;6.996;2022-12-18T06:37:57;-7.80;99.90
39345;DHT22;25061;51.954;6.996;2022-12-18T06:40:23;-7.70;99.90
39345;DHT22;25061;51.954;6.996;2022-12-18T06:42:48;-7.80;99.90
39345;DHT22;25061;51.954;6.996;2022-12-18T06:45:14;-7.70;99.90
39345;DHT22;25061;51.954;6.996;2022-12-18T06:47:39;-7.70;99.90
39345;DHT22;25061;51.954;6.996;2022-12-18T06:50:05;-7.80;99.90
39345;DHT22;25061;51.954;6.996;2022-12-18T06:52:32;-7.80;99.90
39345;DHT22;25061;51.954;6.996;2022-12-18T06:54:57;-7.80;99.90
39345;DHT22;25061;51.954;6.996;2022-12-18T06:57:23;-7.70;99.90
39345;DHT22;25061;51.954;6.996;2022-12-18T06:59:48;-7.70;99.90
39345;DHT22;25061;51.954;6.996;2022-12-18T07:02:15;-7.70;99.90
39345;DHT22;25061;51.954;6.996;2022-12-18T07:04:40;-7.60;99.90
39345;DHT22;25061;51.954;6.996;2022-12-18T07:07:06;-7.70;99.90
39345;DHT22;25061;51.954;6.996;2022-12-18T07:09:31;-7.50;99.90
39345;DHT22;25061;51.954;6.996;2022-12-18T07:11:57;-7.40;99.90
39345;DHT22;25061;51.954;6.996;2022-12-18T07:14:23;-7.40;99.90
39345;DHT22;25061;51.954;6.996;2022-12-18T07:16:48;-7.30;99.90
39345;DHT22;25061;51.954;6.996;2022-12-18T07:19:14;-7.30;99.90
39345;DHT22;25061;51.954;6.996;2022-12-18T07:21:39;-7.20;99.90
39345;DHT22;25061;51.954;6.996;2022-12-18T07:24:05;-7.20;99.90
39345;DHT22;25061;51.954;6.996;2022-12-18T07:26:31;-7.10;99.90
39345;DHT22;25061;51.954;6.996;2022-12-18T07:28:57;-7.00;99.90
39345;DHT22;25061;51.954;6.996;2022-12-18T07:31:24;-7.00;99.90
39345;DHT22;25061;51.954;6.996;2022-12-18T07:33:50;-6.90;99.90
39345;DHT22;25061;51.954;6.996;2022-12-18T07:36:16;-6.70;99.90
39345;DHT22;25061;51.954;6.996;2022-12-18T07:38:42;-6.80;99.90
39345;DHT22;25061;51.954;6.996;2022-12-18T07:41:10;-6.70;99.90
39345;DHT22;25061;51.954;6.996;2022-12-18T07:43:37;-6.60;99.90
39345;DHT22;25061;51.954;6.996;2022-12-18T07:46:04;-6.50;99.90
39345;DHT22;25061;51.954;6.996;2022-12-18T07:48:29;-6.50;99.90
39345;DHT22;25061;51.954;6.996;2022-12-18T07:50:59;-6.50;99.90
39345;DHT22;25061;51.954;6.996;2022-12-18T07:53:26;-6.40;99.90
39345;DHT22;25061;51.954;6.996;2022-12-18T07:55:59;-6.20;99.90
39345;DHT22;25061;51.954;6.996;2022-12-18T07:58:24;-6.30;99.90
39345;DHT22;25061;51.954;6.996;2022-12-18T08:00:50;-6.20;99.90
39345;DHT22;25061;51.954;6.996;2022-12-18T08:03:15;-6.00;99.90
39345;DHT22;25061;51.954;6.996;2022-12-18T08:05:41;-5.70;99.90
39345;DHT22;25061;51.954;6.996;2022-12-18T08:08:07;-5.80;99.90
39345;DHT22;25061;51.954;6.996;2022-12-18T08:10:32;-5.90;99.90
39345;DHT22;25061;51.954;6.996;2022-12-18T08:12:58;-5.90;99.90
39345;DHT22;25061;51.954;6.996;2022-12-18T08:15:23;-5.70;99.90
39345;DHT22;25061;51.954;6.996;2022-12-18T14:18:53;-5.50;99.90
39345;DHT22;25061;51.954;6.996;2022-12-18T14:21:26;-1.00;99.90
39345;DHT22;25061;51.954;6.996;2022-12-18T14:26:34;-1.10;99.90
39345;DHT22;25061;51.954;6.996;2022-12-18T14:29:17;-1.10;99.90
39345;DHT22;25061;51.954;6.996;2022-12-18T14:31:43;-1.10;99.90
39345;DHT22;25061;51.954;6.996;2022-12-18T14:34:17;-1.10;99.90
39345;DHT22;25061;51.954;6.996;2022-12-18T14:36:52;-1.10;99.90
39345;DHT22;25061;51.954;6.996;2022-12-18T14:39:18;-1.10;99.90
39345;DHT22;25061;51.954;6.996;2022-12-18T14:41:44;-1.10;99.90
39345;DHT22;25061;51.954;6.996;2022-12-18T14:44:12;-1.10;99.90
39345;DHT22;25061;51.954;6.996;2022-12-18T14:46:48;-1.10;99.90
39345;DHT22;25061;51.954;6.996;2022-12-18T14:51:51;-1.00;99.90
39345;DHT22;25061;51.954;6.996;2022-12-18T14:54:19;-1.00;99.90
39345;DHT22;25061;51.954;6.996;2022-12-18T14:57:01;-1.00;99.90
39345;DHT22;25061;51.954;6.996;2022-12-18T14:59:27;-1.00;99.90
39345;DHT22;25061;51.954;6.996;2022-12-18T15:04:40;-1.00;99.90
39345;DHT22;25061;51.954;6.996;2022-12-18T15:07:17;-1.00;99.90
39345;DHT22;25061;51.954;6.996;2022-12-18T15:10:08;-1.00;99.90
39345;DHT22;25061;51.954;6.996;2022-12-18T15:12:37;-1.00;99.90
39345;DHT22;25061;51.954;6.996;2022-12-18T15:15:05;-1.00;99.90
39345;DHT22;25061;51.954;6.996;2022-12-18T15:17:57;-1.00;99.90
39345;DHT22;25061;51.954;6.996;2022-12-18T15:20:23;-1.00;99.90
39345;DHT22;25061;51.954;6.996;2022-12-18T15:22:48;-1.10;99.90
39345;DHT22;25061;51.954;6.996;2022-12-18T15:25:35;-1.10;99.90
39345;DHT22;25061;51.954;6.996;2022-12-18T15:28:02;-1.10;99.90
39345;DHT22;25061;51.954;6.996;2022-12-18T15:30:28;-1.10;99.90
39345;DHT22;25061;51.954;6.996;2022-12-18T15:33:26;-1.10;99.90
39345;DHT22;25061;51.954;6.996;2022-12-18T15:36:04;-1.00;99.90
39345;DHT22;25061;51.954;6.996;2022-12-18T15:38:30;-1.00;99.90
39345;DHT22;25061;51.954;6.996;2022-12-18T15:40:56;-1.10;99.90
39345;DHT22;25061;51.954;6.996;2022-12-18T15:43:22;-1.00;99.90
39345;DHT22;25061;51.954;6.996;2022-12-18T15:46:04;-1.10;99.90
39345;DHT22;25061;51.954;6.996;2022-12-18T15:48:33;-1.10;99.90
39345;DHT22;25061;51.954;6.996;2022-12-18T15:50:59;-1.10;99.90
39345;DHT22;25061;51.954;6.996;2022-12-18T15:53:29;-1.10;99.90
39345;DHT22;25061;51.954;6.996;2022-12-18T15:55:55;-1.10;99.90
39345;DHT22;25061;51.954;6.996;2022-12-18T15:58:53;-1.00;99.90
39345;DHT22;25061;51.954;6.996;2022-12-18T16:01:20;-1.10;99.90
39345;DHT22;25061;51.954;6.996;2022-12-18T16:03:45;-1.00;99.90
39345;DHT22;25061;51.954;6.996;2022-12-18T16:06:11;-1.00;99.90
39345;DHT22;25061;51.954;6.996;2022-12-18T16:08:36;-1.00;99.90
39345;DHT22;25061;51.954;6.996;2022-12-18T16:11:02;-1.10;99.90
39345;DHT22;25061;51.954;6.996;2022-12-18T16:13:28;-1.00;99.90
39345;DHT22;25061;51.954;6.996;2022-12-18T16:15:53;-1.10;99.90
39345;DHT22;25061;51.954;6.996;2022-12-18T16:18:19;-1.00;99.90
39345;DHT22;25061;51.954;6.996;2022-12-18T16:20:45;-1.00;99.90
39345;DHT22;25061;51.954;6.996;2022-12-18T16:23:10;-1.00;99.90
39345;DHT22;25061;51.954;6.996;2022-12-18T16:25:36;-1.00;99.90
39345;DHT22;25061;51.954;6.996;2022-12-18T16:28:02;-0.90;99.90
39345;DHT22;25061;51.954;6.996;2022-12-18T16:30:29;-0.90;99.90
39345;DHT22;25061;51.954;6.996;2022-12-18T16:32:56;-0.90;99.90
39345;DHT22;25061;51.954;6.996;2022-12-18T16:35:22;-0.80;99.90
39345;DHT22;25061;51.954;6.996;2022-12-18T16:37:48;-0.80;99.90
39345;DHT22;25061;51.954;6.996;2022-12-18T16:40:15;-0.80;99.90
39345;DHT22;25061;51.954;6.996;2022-12-18T16:42:43;-0.70;99.90
39345;DHT22;25061;51.954;6.996;2022-12-18T16:45:15;-0.70;99.90
39345;DHT22;25061;51.954;6.996;2022-12-18T16:47:41;-0.70;99.90
39345;DHT22;25061;51.954;6.996;2022-12-18T16:50:07;-0.60;99.90
39345;DHT22;25061;51.954;6.996;2022-12-18T16:52:34;-0.60;99.90
39345;DHT22;25061;51.954;6.996;2022-12-18T16:54:59;-0.50;99.90
39345;DHT22;25061;51.954;6.996;2022-12-18T16:57:25;-0.60;99.90
39345;DHT22;25061;51.954;6.996;2022-12-18T16:59:51;-0.60;99.90
39345;DHT22;25061;51.954;6.996;2022-12-18T17:02:22;-0.50;99.90
39345;DHT22;25061;51.954;6.996;2022-12-18T17:04:48;-0.40;99.90
39345;DHT22;25061;51.954;6.996;2022-12-18T17:07:14;-0.50;99.90
39345;DHT22;25061;51.954;6.996;2022-12-18T17:09:40;-0.40;99.90
39345;DHT22;25061;51.954;6.996;2022-12-18T17:12:06;-0.40;99.90
39345;DHT22;25061;51.954;6.996;2022-12-18T17:14:32;-0.30;99.90
39345;DHT22;25061;51.954;6.996;2022-12-18T17:16:58;-0.40;99.90
39345;DHT22;25061;51.954;6.996;2022-12-18T17:19:27;-0.40;99.90
39345;DHT22;25061;51.954;6.996;2022-12-18T17:22:05;-0.30;99.90
39345;DHT22;25061;51.954;6.996;2022-12-18T17:24:32;-0.30;99.90
39345;DHT22;25061;51.954;6.996;2022-12-18T17:26:57;-0.40;99.90
39345;DHT22;25061;51.954;6.996;2022-12-18T17:29:23;-0.40;99.90
39345;DHT22;25061;51.954;6.996;2022-12-18T17:31:48;-0.40;99.90
39345;DHT22;25061;51.954;6.996;2022-12-18T17:34:14;-0.30;99.90
39345;DHT22;25061;51.954;6.996;2022-12-18T17:36:40;-0.30;99.90
39345;DHT22;25061;51.954;6.996;2022-12-18T17:39:06;-0.30;99.90
39345;DHT22;25061;51.954;6.996;2022-12-18T17:41:32;-0.40;99.90
39345;DHT22;25061;51.954;6.996;2022-12-18T17:44:03;-0.30;99.90
39345;DHT22;25061;51.954;6.996;2022-12-18T17:46:31;-0.30;99.90
39345;DHT22;25061;51.954;6.996;2022-12-18T17:48:58;-0.40;99.90
39345;DHT22;25061;51.954;6.996;2022-12-18T17:51:24;-0.40;99.90
39345;DHT22;25061;51.954;6.996;2022-12-18T17:53:50;-0.40;99.90
39345;DHT22;25061;51.954;6.996;2022-12-18T17:56:17;-0.30;99.90
39345;DHT22;25061;51.954;6.996;2022-12-18T17:58:43;-0.40;99.90
39345;DHT22;25061;51.954;6.996;2022-12-18T18:01:16;-0.30;99.90
39345;DHT22;25061;51.954;6.996;2022-12-18T18:03:42;-0.30;99.90
39345;DHT22;25061;51.954;6.996;2022-12-18T18:06:08;-0.30;99.90
39345;DHT22;25061;51.954;6.996;2022-12-18T18:08:35;-0.50;99.90
39345;DHT22;25061;51.954;6.996;2022-12-18T18:11:13;-0.30;99.90
39345;DHT22;25061;51.954;6.996;2022-12-18T18:13:57;-0.40;99.90
39345;DHT22;25061;51.954;6.996;2022-12-18T18:16:46;-0.30;99.90
39345;DHT22;25061;51.954;6.996;2022-12-18T18:19:15;-0.30;99.90
39345;DHT22;25061;51.954;6.996;2022-12-18T18:21:43;-0.30;99.90
39345;DHT22;25061;51.954;6.996;2022-12-18T18:24:10;-0.30;99.90
39345;DHT22;25061;51.954;6.996;2022-12-18T18:26:37;-0.30;99.90
39345;DHT22;25061;51.954;6.996;2022-12-18T18:29:05;-0.30;99.90
39345;DHT22;25061;51.954;6.996;2022-12-18T18:31:31;-0.20;99.90
39345;DHT22;25061;51.954;6.996;2022-12-18T18:34:00;-0.30;99.90
39345;DHT22;25061;51.954;6.996;2022-12-18T18:36:25;-0.30;99.90
39345;DHT22;25061;51.954;6.996;2022-12-18T18:38:52;-0.30;99.90
39345;DHT22;25061;51.954;6.996;2022-12-18T18:41:18;-0.30;99.90
39345;DHT22;25061;51.954;6.996;2022-12-18T18:43:44;-0.30;99.90
39345;DHT22;25061;51.954;6.996;2022-12-18T18:46:12;-0.30;99.90
39345;DHT22;25061;51.954;6.996;2022-12-18T18:48:37;-0.40;99.90
39345;DHT22;25061;51.954;6.996;2022-12-18T18:51:10;-0.30;99.90
39345;DHT22;25061;51.954;6.996;2022-12-18T18:53:38;-0.30;99.90
39345;DHT22;25061;51.954;6.996;2022-12-18T18:56:05;-0.30;99.90
39345;DHT22;25061;51.954;6.996;2022-12-18T18:58:31;-0.30;99.90
39345;DHT22;25061;51.954;6.996;2022-12-18T19:01:05;-0.30;99.90
39345;DHT22;25061;51.954;6.996;2022-12-18T19:03:31;-0.40;99.90
39345;DHT22;25061;51.954;6.996;2022-12-18T19:05:59;-0.30;99.90
39345;DHT22;25061;51.954;6.996;2022-12-18T19:08:30;-0.30;99.90
39345;DHT22;25061;51.954;6.996;2022-12-18T19:10:58;-0.40;99.90
39345;DHT22;25061;51.954;6.996;2022-12-18T19:13:26;-0.30;99.90
39345;DHT22;25061;51.954;6.996;2022-12-18T19:16:10;-0.30;99.90
39345;DHT22;25061;51.954;6.996;2022-12-18T19:18:36;-0.40;99.90
39345;DHT22;25061;51.954;6.996;2022-12-18T19:21:05;-0.40;99.90
39345;DHT22;25061;51.954;6.996;2022-12-18T19:23:32;-0.40;99.90
39345;DHT22;25061;51.954;6.996;2022-12-18T19:26:02;-0.30;99.90
39345;DHT22;25061;51.954;6.996;2022-12-18T19:28:28;-0.30;99.90
39345;DHT22;25061;51.954;6.996;2022-12-18T19:30:57;-0.40;99.90
39345;DHT22;25061;51.954;6.996;2022-12-18T19:33:24;-0.30;99.90
39345;DHT22;25061;51.954;6.996;2022-12-18T19:35:50;-0.30;99.90
39345;DHT22;25061;51.954;6.996;2022-12-18T19:38:16;-0.30;99.90
39345;DHT22;25061;51.954;6.996;2022-12-18T19:40:42;-0.30;99.90
39345;DHT22;25061;51.954;6.996;2022-12-18T19:43:08;-0.30;99.90
39345;DHT22;25061;51.954;6.996;2022-12-18T19:45:33;-0.20;99.90
39345;DHT22;25061;51.954;6.996;2022-12-18T19:47:59;-0.30;99.90
39345;DHT22;25061;51.954;6.996;2022-12-18T19:50:25;-0.20;99.90
39345;DHT22;25061;51.954;6.996;2022-12-18T19:52:50;-0.20;99.90
39345;DHT22;25061;51.954;6.996;2022-12-18T19:55:16;-0.20;99.90
39345;DHT22;25061;51.954;6.996;2022-12-18T19:57:42;-0.20;99.90
39345;DHT22;25061;51.954;6.996;2022-12-18T20:00:08;-0.20;99.90
39345;DHT22;25061;51.954;6.996;2022-12-18T20:02:34;-0.30;99.90
39345;DHT22;25061;51.954;6.996;2022-12-18T20:05:11;-0.20;99.90
39345;DHT22;25061;51.954;6.996;2022-12-18T20:07:38;-0.10;99.90
39345;DHT22;25061;51.954;6.996;2022-12-18T20:10:06;-0.10;99.90
39345;DHT22;25061;51.954;6.996;2022-12-18T20:12:32;-0.10;99.90
39345;DHT22;25061;51.954;6.996;2022-12-18T20:14:57;-0.10;99.90
39345;DHT22;25061;51.954;6.996;2022-12-18T20:17:23;0.00;99.90
39345;DHT22;25061;51.954;6.996;2022-12-18T20:19:48;0.00;99.90
39345;DHT22;25061;51.954;6.996;2022-12-18T20:22:14;0.00;99.90
39345;DHT22;25061;51.954;6.996;2022-12-18T20:24:40;0.00;99.90
39345;DHT22;25061;51.954;6.996;2022-12-18T20:27:06;0.00;99.90
39345;DHT22;25061;51.954;6.996;2022-12-18T20:29:32;0.10;99.90
39345;DHT22;25061;51.954;6.996;2022-12-18T20:31:58;0.10;99.90
39345;DHT22;25061;51.954;6.996;2022-12-18T20:34:26;0.10;99.90
39345;DHT22;25061;51.954;6.996;2022-12-18T20:36:52;0.20;99.90
39345;DHT22;25061;51.954;6.996;2022-12-18T20:39:17;0.20;99.90
39345;DHT22;25061;51.954;6.996;2022-12-18T20:41:43;0.30;99.90
39345;DHT22;25061;51.954;6.996;2022-12-18T20:44:13;0.20;99.90
39345;DHT22;25061;51.954;6.996;2022-12-18T20:46:39;0.30;99.90
39345;DHT22;25061;51.954;6.996;2022-12-18T20:49:05;0.30;99.90
39345;DHT22;25061;51.954;6.996;2022-12-18T20:51:30;0.40;99.90
39345;DHT22;25061;51.954;6.996;2022-12-18T20:53:56;0.30;99.90
39345;DHT22;25061;51.954;6.996;2022-12-18T20:56:24;0.30;99.90
39345;DHT22;25061;51.954;6.996;2022-12-18T20:58:54;0.30;99.90
39345;DHT22;25061;51.954;6.996;2022-12-18T21:01:21;0.30;99.90
39345;DHT22;25061;51.954;6.996;2022-12-18T21:03:48;0.30;99.90
39345;DHT22;25061;51.954;6.996;2022-12-18T21:06:16;0.30;99.90
39345;DHT22;25061;51.954;6.996;2022-12-18T21:08:42;0.20;99.90
39345;DHT22;25061;51.954;6.996;2022-12-18T21:11:26;0.20;99.90
39345;DHT22;25061;51.954;6.996;2022-12-18T21:14:25;0.20;99.90
39345;DHT22;25061;51.954;6.996;2022-12-18T21:16:53;0.20;99.90
39345;DHT22;25061;51.954;6.996;2022-12-18T21:19:21;0.20;99.90
39345;DHT22;25061;51.954;6.996;2022-12-18T21:21:48;0.30;99.90
39345;DHT22;25061;51.954;6.996;2022-12-18T21:24:15;0.30;99.90
39345;DHT22;25061;51.954;6.996;2022-12-18T21:26:43;0.20;99.90
39345;DHT22;25061;51.954;6.996;2022-12-18T21:29:15;0.20;99.90
39345;DHT22;25061;51.954;6.996;2022-12-18T21:31:41;0.20;99.90
39345;DHT22;25061;51.954;6.996;2022-12-18T21:34:09;0.20;99.90
39345;DHT22;25061;51.954;6.996;2022-12-18T21:36:38;0.20;99.90
39345;DHT22;25061;51.954;6.996;2022-12-18T21:39:04;0.20;99.90
39345;DHT22;25061;51.954;6.996;2022-12-18T21:41:30;0.10;99.90
39345;DHT22;25061;51.954;6.996;2022-12-18T21:44:16;0.20;99.90
39345;DHT22;25061;51.954;6.996;2022-12-18T21:46:47;0.10;99.90
39345;DHT22;25061;51.954;6.996;2022-12-18T21:49:14;0.10;99.90
39345;DHT22;25061;51.954;6.996;2022-12-18T21:51:44;0.10;99.90
39345;DHT22;25061;51.954;6.996;2022-12-18T21:54:10;0.10;99.90
39345;DHT22;25061;51.954;6.996;2022-12-18T21:59:22;0.10;99.90
39345;DHT22;25061;51.954;6.996;2022-12-18T22:01:49;0.20;99.90
39345;DHT22;25061;51.954;6.996;2022-12-18T22:04:16;0.20;99.90
39345;DHT22;25061;51.954;6.996;2022-12-18T22:06:42;0.10;99.90
39345;DHT22;25061;51.954;6.996;2022-12-18T22:09:10;0.20;99.90
39345;DHT22;25061;51.954;6.996;2022-12-18T22:11:35;0.20;99.90
39345;DHT22;25061;51.954;6.996;2022-12-18T22:14:01;0.10;99.90
39345;DHT22;25061;51.954;6.996;2022-12-18T22:16:27;0.10;99.90